WetterOnline ( http://www.wetteronline.de )

Wetter aktuell Bischofsmais

Aktuelles Wetter: Zwiesel (613m)

6-stündlich | Neueste Meldungen
Ortszeit Temperatur Wetter
Sa, 16.02. 1:00 -3.1° C wolkig
Fr, 15.02. 19:00 0.9° C wolkenlos
Fr, 15.02. 13:00 8.7° C wolkenlos
Fr, 15.02. 7:00 -6.4° C wolkenlos
Fr, 15.02. 1:00 -4.4° C wolkenlos
Do, 14.02. 19:00 -0.0° C wolkenlos
Do, 14.02. 13:00 5.3° C leicht bewölkt
Do, 14.02. 7:00 -5.3° C wolkig
Ortszeit Temperatur Wetter
Sa, 16.02. 4:30 -4.5° C wolkenlos
Sa, 16.02. 4:20 -4.5° C wolkenlos
Sa, 16.02. 4:10 -4.9° C wolkenlos
Sa, 16.02. 4:00 -4.2° C wolkenlos
Sa, 16.02. 3:50 -4.2° C wolkenlos
Sa, 16.02. 3:40 -4.4° C fast wolkenlos
Sa, 16.02. 3:30 -4.1° C leicht bewölkt
Sa, 16.02. 3:00 -4.1° C wolkig
Sa, 16.02. 2:30 -4.1° C wolkig
Sa, 16.02. 2:00 -3.7° C leicht bewölkt
Sa, 16.02. 1:30 -3.7° C wolkig
Ortszeit Relative Feuchte Sichtweite
Sa, 16.02. 1:00 96% 35 km
Fr, 15.02. 19:00 77% 25 km
Fr, 15.02. 13:00 41% 30 km
Fr, 15.02. 7:00 97% 22 km
Fr, 15.02. 1:00 96% 15 km
Do, 14.02. 19:00 87% 30 km
Do, 14.02. 13:00 52% 60 km
Do, 14.02. 7:00 96% 8 km
Ortszeit Relative Feuchte Sichtweite
Sa, 16.02. 4:30 96% 60 km
Sa, 16.02. 4:20 96% -
Sa, 16.02. 4:10 94% -
Sa, 16.02. 4:00 96% 65 km
Sa, 16.02. 3:50 96% -
Sa, 16.02. 3:40 96% -
Sa, 16.02. 3:30 95% 65 km
Sa, 16.02. 3:00 97% 35 km
Sa, 16.02. 2:30 94% 45 km
Sa, 16.02. 2:00 96% 35 km
Sa, 16.02. 1:30 93% 30 km
Ortszeit Niederschlagsmenge Niederschlagsart
Sa, 16.02. 1:00 0.0 l/m2 in 6 Std. -
Fr, 15.02. 19:00 0.0 l/m2 in 12 Std. -
Fr, 15.02. 13:00 0.0 l/m2 in 6 Std. -
Fr, 15.02. 7:00 0.0 l/m2 in 12 Std. -
Fr, 15.02. 1:00 0.0 l/m2 in 6 Std. -
Do, 14.02. 19:00 0.0 l/m2 in 12 Std. -
Do, 14.02. 13:00 0.0 l/m2 in 6 Std. -
Do, 14.02. 7:00 0.0 l/m2 in 12 Std. -
Ortszeit Niederschlagsmenge Niederschlagsart
Sa, 16.02. 4:30 0.0 l/m2 in 1 Std. -
Sa, 16.02. 4:20 keine Meldung -
Sa, 16.02. 4:10 keine Meldung -
Sa, 16.02. 4:00 0.0 l/m2 in 1 Std. -
Sa, 16.02. 3:50 keine Meldung -
Sa, 16.02. 3:40 keine Meldung -
Sa, 16.02. 3:30 0.0 l/m2 in 1 Std. -
Sa, 16.02. 3:00 0.0 l/m2 in 1 Std. -
Sa, 16.02. 2:30 0.0 l/m2 in 1 Std. -
Sa, 16.02. 2:00 0.0 l/m2 in 1 Std. -
Sa, 16.02. 1:30 0.0 l/m2 in 1 Std. -
Ortszeit Stärke Spitze Richtung
km/h Bft. km/h Grad Sektor
Sa, 16.02. 1:00 4 1 11 140° SO
Fr, 15.02. 19:00 4 1 11 350° N
Fr, 15.02. 13:00 4 1 7 150° SO
Fr, 15.02. 7:00 0 0 4 - -
Fr, 15.02. 1:00 0 0 7 - -
Do, 14.02. 19:00 4 1 11 100° O
Do, 14.02. 13:00 4 1 7 240° SW
Do, 14.02. 7:00 4 1 7 10° N
Ortszeit Stärke Spitze Richtung
km/h Bft. km/h Grad Sektor
Sa, 16.02. 4:30 4 1 7 20° N
Sa, 16.02. 4:20 4 1 - 20° N
Sa, 16.02. 4:10 4 1 - 90° O
Sa, 16.02. 4:00 4 1 7 130° SO
Sa, 16.02. 3:50 4 1 - 130° SO
Sa, 16.02. 3:40 4 1 - 90° O
Sa, 16.02. 3:30 2 1 4 160° S
Sa, 16.02. 3:00 2 1 9 340° N
Sa, 16.02. 2:30 2 1 7 100° O
Sa, 16.02. 2:00 2 1 6 280° W
Sa, 16.02. 1:30 4 1 7 110° O
Ortszeit Untergrenze Bedeckung Gattung
total tief tief mittel hoch
Sa, 16.02. 1:00 10500 m 8/8 0/8 - - -
Fr, 15.02. 19:00 - 0/8 0/8 - - -
Fr, 15.02. 13:00 - 0/8 0/8 - - -
Fr, 15.02. 7:00 - 0/8 0/8 - - -
Fr, 15.02. 1:00 - 0/8 0/8 - - -
Do, 14.02. 19:00 - 0/8 0/8 - - -
Do, 14.02. 13:00 4500 m 3/8 3/8 - - -
Do, 14.02. 7:00 3900 m 6/8 7/8 - - -
Ortszeit Bedeckungsgrad in Achtel und Wolkenuntergrenze
Sa, 16.02. 4:30 keine Wolken
Sa, 16.02. 4:20 keine Wolken
Sa, 16.02. 4:10 keine Wolken
Sa, 16.02. 4:00 keine Wolken
Sa, 16.02. 3:50 keine Wolken
Sa, 16.02. 3:40 1(9000m)
Sa, 16.02. 3:30 6(9000m)
Sa, 16.02. 3:00 7(9000m)
Sa, 16.02. 2:30 8(9000m)
Sa, 16.02. 2:00 3(9000m)
Sa, 16.02. 1:30 7(10500m)
Ortszeit Luftdruck NN (hPa) Tendenz (hPa in 3 Std.)
Sa, 16.02. 1:00 1036 - 0,7
Fr, 15.02. 19:00 1036 + 0,1
Fr, 15.02. 13:00 1035 - 1,1
Fr, 15.02. 7:00 1040 - 0,6
Fr, 15.02. 1:00 1041 + 0,1
Do, 14.02. 19:00 1039 + 0,8
Do, 14.02. 13:00 1038 - 0,7
Do, 14.02. 7:00 1042 + 0,7
Ortszeit Luftdruck NN (hPa) Tendenz (hPa in 3 Std.)
Sa, 16.02. 4:30 1035 - 1,4
Sa, 16.02. 4:20 1035 keine Meldung
Sa, 16.02. 4:10 1035 keine Meldung
Sa, 16.02. 4:00 1035 - 1,4
Sa, 16.02. 3:50 1035 keine Meldung
Sa, 16.02. 3:40 1035 keine Meldung
Sa, 16.02. 3:30 1035 - 1,2
Sa, 16.02. 3:00 1035 - 0,9
Sa, 16.02. 2:30 1036 - 0,8
Sa, 16.02. 2:00 1036 - 0,8
Sa, 16.02. 1:30 1036 - 0,6
Ortszeit Schneehöhe (cm)
Sa, 16.02. 1:00 56
Fr, 15.02. 19:00 56
Fr, 15.02. 13:00 57
Fr, 15.02. 7:00 57
Fr, 15.02. 1:00 57
Do, 14.02. 19:00 58
Do, 14.02. 13:00 58
Do, 14.02. 7:00 58
Ortszeit Schneehöhe (cm)
Sa, 16.02. 4:30 56
Sa, 16.02. 4:20 56
Sa, 16.02. 4:10 56
Sa, 16.02. 4:00 56
Sa, 16.02. 3:50 56
Sa, 16.02. 3:40 56
Sa, 16.02. 3:30 56
Sa, 16.02. 3:00 56
Sa, 16.02. 2:30 56
Sa, 16.02. 2:00 56
Sa, 16.02. 1:30 56
Link zu dieser Seite / Seite empfehlen

Das Wetter in ...